Aitutaki Airport Airport, Aitutaki (NCAI)

Airport Weather & NOTAMs

METAR for:NCAI (Cook Isl/Aitutaki Arpt, --, CK)
Text:NCAI 251900Z AUTO 11010KT 9999 SCT018 BKN290 25/18 Q1018
Conditions at:1900 UTC 25 Jul 2024
Temperature: 25.0°C ( 77°F)
Dewpoint: 18.0°C ( 64°F) [RH = 65%]
Pressure (altimeter):30.06 inches Hg (1018.0 mb)
Winds:from the ESE (110 degrees) at 12 MPH (10 knots; 5.1 m/s)
Visibility:6 or more sm (10+ km)
Ceiling:29000 feet AGL
Clouds:scattered clouds at 1800 feet AGL, broken clouds at 29000 feet AGL

Live Departures & Arrivals

There are currently no arrivals or departures for this airport.

Departures History (last 12 months)

Flight No. Dest. Aircraft Date

Arrivals History (last 12 months)

Flight No. Origin Aircraft Date
Runway Information (Airport elevation: 20ft)
Runway 09 Length 4,187ft Width 43ft Elevation 18ft Surface Asphalt Heading 106
Runway 14 Length 5,941ft Width 95ft Elevation 18ft Surface Bituminous Heading 154
Runway 27 Length 4,187ft Width 43ft Elevation 18ft Surface Asphalt Heading 286
Runway 32 Length 5,941ft Width 95ft Elevation 18ft Surface Bituminous Heading 334
Airport Frequencies
Type MC Frequency 118.100 Mhz
Airport Navaids
Type NDB Ident AI Frequency 320 Khz